This is the latest recevied weather packets stored in our database for station/object ON3FV. If no packets are shown the sender has not sent any weather packets the latest 10 day(s).
| Time | Temp. | Humidity | Pressure | Rain* | Wind** | Luminosity | Snow |
|---|---|---|---|---|---|---|---|
| 1777565919 | 21.67° C | 34% | 1020.8 hPa | - | - | - | - |
| 1777563511 | 21.67° C | 34% | 1020.8 hPa | - | - | - | - |
| 1777562909 | 21.67° C | 36% | 1020.7 hPa | - | - | - | - |
| 1777556608 | 20.56° C | 39% | 1021.5 hPa | - | - | - | - |
| 1777554501 | 20.56° C | 39% | 1021.9 hPa | - | - | - | - |
| 1777552976 | 20° C | 38% | 1022 hPa | - | - | - | - |
| 1777552073 | 20° C | 38% | 1022.3 hPa | - | - | - | - |
| 1777549966 | 19.44° C | 41% | 1022.5 hPa | - | - | - | - |
| 1777549665 | 19.44° C | 40% | 1022.6 hPa | - | - | - | - |
| 1777544267 | 17.78° C | 44% | 1023.4 hPa | - | - | - | - |
| 1777543384 | 17.22° C | 44% | 1023.5 hPa | - | - | - | - |
| 1777543043 | 17.22° C | 45% | 1023.5 hPa | - | - | - | - |
| 1777541237 | 16.67° C | 45% | 1023.5 hPa | - | - | - | - |
| 1777540936 | 16.67° C | 45% | 1023.5 hPa | - | - | - | - |
| 1777539130 | 16.11° C | 46% | 1023.6 hPa | - | - | - | - |
| 1777537324 | 15.56° C | 45% | 1023.9 hPa | - | - | - | - |
| 1777532508 | 13.33° C | 53% | 1024.3 hPa | - | - | - | - |
| 1777531604 | 12.22° C | 54% | 1024.3 hPa | - | - | - | - |
| 1777531003 | 11.67° C | 53% | 1024.3 hPa | - | - | - | - |
| 1777530702 | 11.67° C | 53% | 1024.3 hPa | - | - | - | - |
| 1777529799 | 11.11° C | 54% | 1024.2 hPa | - | - | - | - |
| 1777529498 | 11.11° C | 54% | 1024.2 hPa | - | - | - | - |
| 1777528895 | 10.56° C | 55% | 1024.1 hPa | - | - | - | - |
| 1777527390 | 9.44° C | 57% | 1023.6 hPa | - | - | - | - |
| 1777526488 | 9.44° C | 56% | 1023.6 hPa | - | - | - | - |
* Rain since midnight (hover to see other rain measurements)
** Current wind speed in m/s (hover to see current wind gust speed)